createdAt,value
2019-04-29T00:01:09.491Z,101087.09
2019-04-29T00:03:36.806Z,101095.80
2019-04-29T00:06:04.472Z,101093.41
2019-04-29T00:08:31.716Z,101091.36
2019-04-29T00:10:59.146Z,101098.14
2019-04-29T00:13:26.455Z,101090.69
2019-04-29T00:16:16.237Z,101091.13
2019-04-29T00:19:03.363Z,101092.23
2019-04-29T00:21:31.127Z,101084.69
2019-04-29T00:24:04.111Z,101086.41
2019-04-29T00:26:28.031Z,101085.61
2019-04-29T00:28:55.479Z,101084.37
2019-04-29T00:31:22.842Z,101085.54
2019-04-29T00:33:50.123Z,101085.94
2019-04-29T00:36:19.866Z,101094.95
2019-04-29T00:39:00.139Z,101093.70
2019-04-29T00:41:59.492Z,101089.70
2019-04-29T00:44:26.988Z,101091.42
2019-04-29T00:46:54.503Z,101093.43
2019-04-29T00:49:22.067Z,101086.73
2019-04-29T00:51:49.348Z,101091.94
2019-04-29T00:54:24.208Z,101094.08
2019-04-29T00:56:51.473Z,101094.17
2019-04-29T00:59:18.781Z,101098.53
2019-04-29T01:01:46.474Z,101098.11
2019-04-29T01:04:13.772Z,101096.66
2019-04-29T01:06:41.142Z,101100.75
2019-04-29T01:09:11.210Z,101097.73
2019-04-29T01:11:38.491Z,101100.83
2019-04-29T01:14:05.810Z,101100.53
2019-04-29T01:16:32.933Z,101094.06
2019-04-29T01:19:00.309Z,101093.16
2019-04-29T01:21:27.675Z,101099.59
2019-04-29T01:23:54.954Z,101097.52
2019-04-29T01:26:46.711Z,101096.80
2019-04-29T01:29:15.316Z,101095.64
2019-04-29T01:31:42.810Z,101104.88
2019-04-29T01:34:18.594Z,101103.14
2019-04-29T01:36:46.315Z,101099.57
2019-04-29T01:39:15.424Z,101101.69
2019-04-29T01:41:57.229Z,101107.42
2019-04-29T01:44:25.764Z,101104.91
2019-04-29T01:46:52.929Z,101111.03
2019-04-29T01:49:20.079Z,101103.25
2019-04-29T01:51:47.454Z,101109.05
2019-04-29T01:54:14.701Z,101106.20
2019-04-29T01:56:41.953Z,101105.01
2019-04-29T01:59:09.123Z,101112.78
2019-04-29T02:01:36.620Z,101115.93
2019-04-29T02:04:04.302Z,101111.67
2019-04-29T02:06:31.668Z,101116.14
2019-04-29T02:08:59.022Z,101111.11
2019-04-29T02:11:26.405Z,101116.03
2019-04-29T02:13:53.612Z,101119.95
2019-04-29T02:16:20.883Z,101113.38
2019-04-29T02:18:48.116Z,101114.05
2019-04-29T02:21:15.581Z,101114.88
2019-04-29T02:23:51.631Z,101117.44
2019-04-29T02:26:18.876Z,101118.16
2019-04-29T02:28:46.163Z,101113.28
2019-04-29T02:31:32.131Z,101118.31
2019-04-29T02:33:59.295Z,101115.59
2019-04-29T02:36:29.976Z,101105.34
2019-04-29T02:39:15.602Z,101109.09
2019-04-29T02:41:59.441Z,101109.94
2019-04-29T02:44:26.712Z,101111.92
2019-04-29T02:46:53.971Z,101112.83
2019-04-29T02:49:21.179Z,101113.88
2019-04-29T02:52:00.550Z,101116.06
2019-04-29T02:54:29.032Z,101113.48
2019-04-29T02:57:18.929Z,101114.32
2019-04-29T02:59:49.638Z,101106.08
2019-04-29T03:02:23.994Z,101118.43
2019-04-29T03:05:13.339Z,101114.89
2019-04-29T03:07:41.141Z,101110.97
2019-04-29T03:10:09.223Z,101111.17
2019-04-29T03:12:36.672Z,101110.84
2019-04-29T03:15:05.304Z,101112.33
2019-04-29T03:17:32.863Z,101108.77
2019-04-29T03:20:21.426Z,101110.31
2019-04-29T03:22:48.961Z,101114.91
2019-04-29T03:25:16.333Z,101117.75
2019-04-29T03:27:43.712Z,101111.17
2019-04-29T03:30:11.687Z,101108.14
2019-04-29T03:32:39.055Z,101110.00
2019-04-29T03:35:06.844Z,101109.17
2019-04-29T03:37:34.086Z,101115.25
2019-04-29T03:40:01.520Z,101114.92
2019-04-29T03:42:28.885Z,101109.88
2019-04-29T03:44:56.346Z,101110.27
2019-04-29T03:47:23.788Z,101107.75
2019-04-29T03:49:50.948Z,101112.84
2019-04-29T03:52:18.135Z,101122.00
2019-04-29T03:54:45.304Z,101115.99
2019-04-29T03:57:14.309Z,101119.95
2019-04-29T03:59:41.643Z,101120.66
2019-04-29T04:02:20.192Z,101119.81
2019-04-29T04:05:09.956Z,101128.63
2019-04-29T04:07:53.598Z,101130.31
2019-04-29T04:10:20.970Z,101131.20
2019-04-29T04:12:48.232Z,101136.41
2019-04-29T04:15:15.756Z,101134.23
2019-04-29T04:17:52.741Z,101140.86
2019-04-29T04:20:20.137Z,101140.48
2019-04-29T04:22:47.673Z,101138.98
2019-04-29T04:25:16.381Z,101139.69
2019-04-29T04:27:43.943Z,101141.04
2019-04-29T04:30:13.417Z,101142.02
2019-04-29T04:32:40.683Z,101148.09
2019-04-29T04:35:08.869Z,101155.72
2019-04-29T04:37:49.921Z,101152.83
2019-04-29T04:40:23.336Z,101158.53
2019-04-29T04:42:50.611Z,101160.06
2019-04-29T04:45:18.114Z,101162.07
2019-04-29T04:47:45.376Z,101168.65
2019-04-29T04:50:13.049Z,101167.42
2019-04-29T04:52:40.396Z,101165.67
2019-04-29T04:55:09.601Z,101164.78
2019-04-29T04:57:36.773Z,101162.86
2019-04-29T05:00:07.523Z,101169.75
2019-04-29T05:02:34.804Z,101167.22
2019-04-29T05:05:02.278Z,101173.39
2019-04-29T05:07:29.441Z,101175.38
2019-04-29T05:09:56.612Z,101174.41
2019-04-29T05:12:23.873Z,101184.64
2019-04-29T05:14:51.132Z,101184.75
2019-04-29T05:17:18.387Z,101189.94
2019-04-29T05:19:45.753Z,101188.63
2019-04-29T05:22:13.164Z,101194.32
2019-04-29T05:24:40.320Z,101197.16
2019-04-29T05:27:07.583Z,101194.75
2019-04-29T05:29:34.868Z,101189.55
2019-04-29T05:32:02.118Z,101195.14
2019-04-29T05:34:31.286Z,101190.91
2019-04-29T05:37:05.246Z,101193.63
2019-04-29T05:39:37.848Z,101194.10
2019-04-29T05:42:07.630Z,101198.69
2019-04-29T05:44:40.612Z,101198.55
2019-04-29T05:47:33.702Z,101201.00
2019-04-29T05:50:36.103Z,101200.41
2019-04-29T05:53:16.292Z,101208.63
2019-04-29T05:55:41.093Z,101205.06
2019-04-29T05:58:11.291Z,101199.37
2019-04-29T06:00:54.648Z,101203.52
2019-04-29T06:03:21.827Z,101208.77
2019-04-29T06:05:49.105Z,101214.90
2019-04-29T06:08:16.373Z,101213.48
2019-04-29T06:10:43.533Z,101214.95
2019-04-29T06:13:10.843Z,101210.48
2019-04-29T06:15:38.217Z,101212.06
2019-04-29T06:18:05.634Z,101215.09
2019-04-29T06:20:32.922Z,101218.22
2019-04-29T06:23:00.288Z,101223.80
2019-04-29T06:25:27.657Z,101221.87
2019-04-29T06:27:55.188Z,101228.72
2019-04-29T06:30:22.671Z,101229.48
2019-04-29T06:32:49.955Z,101232.29
2019-04-29T06:35:17.256Z,101224.78
2019-04-29T06:37:44.518Z,101228.97
2019-04-29T06:40:12.307Z,101233.58
2019-04-29T06:42:39.717Z,101230.02
2019-04-29T06:45:08.018Z,101228.00
2019-04-29T06:47:35.240Z,101226.64
2019-04-29T06:50:03.945Z,101224.97
2019-04-29T06:52:31.205Z,101218.94
2019-04-29T06:54:58.353Z,101217.67
2019-04-29T06:57:25.768Z,101217.05
2019-04-29T06:59:54.789Z,101218.02
2019-04-29T07:02:22.138Z,101226.17
2019-04-29T07:05:00.117Z,101220.20
2019-04-29T07:07:27.607Z,101224.58
2019-04-29T07:09:56.818Z,101217.34
2019-04-29T07:12:24.078Z,101224.34
2019-04-29T07:14:51.328Z,101213.55
2019-04-29T07:17:18.591Z,101218.53
2019-04-29T07:19:45.879Z,101211.89
2019-04-29T07:22:13.116Z,101214.84
2019-04-29T07:24:40.374Z,101210.41
2019-04-29T07:27:07.854Z,101206.97
2019-04-29T07:29:37.917Z,101214.38
2019-04-29T07:32:08.769Z,101203.83
2019-04-29T07:34:36.672Z,101205.15
2019-04-29T07:37:03.077Z,101201.28
2019-04-29T07:39:31.696Z,101203.16
2019-04-29T07:41:59.573Z,101198.14
2019-04-29T07:44:43.136Z,101201.81
2019-04-29T07:47:02.438Z,101193.37
2019-04-29T07:49:29.662Z,101202.95
2019-04-29T07:51:56.900Z,101205.72
2019-04-29T07:54:24.070Z,101195.44
2019-04-29T07:56:51.417Z,101204.94
2019-04-29T07:59:18.880Z,101199.95
2019-04-29T08:01:46.243Z,101201.77
2019-04-29T08:04:13.618Z,101201.81
2019-04-29T08:06:42.707Z,101197.00
2019-04-29T08:09:11.182Z,101188.14
2019-04-29T08:11:39.018Z,101186.22
2019-04-29T08:14:06.404Z,101187.02
2019-04-29T08:16:33.759Z,101182.28
2019-04-29T08:19:00.921Z,101181.51
2019-04-29T08:21:28.188Z,101179.25
2019-04-29T08:23:55.435Z,101175.33
2019-04-29T08:26:22.676Z,101178.31
2019-04-29T08:28:52.969Z,101166.28
2019-04-29T08:31:21.098Z,101168.91
2019-04-29T08:33:48.550Z,101168.98
2019-04-29T08:36:15.895Z,101165.78
2019-04-29T08:38:43.144Z,101160.44
2019-04-29T08:41:10.410Z,101162.75
2019-04-29T08:43:47.601Z,101162.73
2019-04-29T08:46:19.003Z,101157.97
2019-04-29T08:48:46.369Z,101161.64
2019-04-29T08:51:13.531Z,101156.59
2019-04-29T08:53:40.912Z,101156.36
2019-04-29T08:56:10.338Z,101155.48
2019-04-29T08:58:39.373Z,101158.22
2019-04-29T09:01:06.841Z,101156.23
2019-04-29T09:03:40.429Z,101155.68
2019-04-29T09:06:06.053Z,101156.98
2019-04-29T09:08:34.466Z,101152.17
2019-04-29T09:11:01.803Z,101149.46
2019-04-29T09:13:45.316Z,101153.24
2019-04-29T09:16:12.812Z,101153.41
2019-04-29T09:18:40.196Z,101151.07
2019-04-29T09:21:07.458Z,101150.59
2019-04-29T09:23:35.764Z,101145.70
2019-04-29T09:26:18.692Z,101144.71
2019-04-29T09:28:45.899Z,101145.63
2019-04-29T09:31:13.570Z,101144.29
2019-04-29T09:33:44.262Z,101137.30
2019-04-29T09:36:13.862Z,101141.64
2019-04-29T09:38:39.532Z,101141.70
2019-04-29T09:41:16.287Z,101137.39
2019-04-29T09:44:03.590Z,101130.79
2019-04-29T09:46:34.586Z,101134.76
2019-04-29T09:49:00.193Z,101125.48
2019-04-29T09:51:29.366Z,101120.53
2019-04-29T09:53:57.774Z,101115.59
2019-04-29T09:56:25.171Z,101119.76
2019-04-29T09:59:12.103Z,101120.59
2019-04-29T10:01:50.403Z,101113.72
2019-04-29T10:04:30.182Z,101120.08
2019-04-29T10:06:57.764Z,101112.02
2019-04-29T10:09:25.287Z,101106.99
2019-04-29T10:11:52.564Z,101116.38
2019-04-29T10:14:20.051Z,101115.56
2019-04-29T10:17:26.949Z,101111.56
2019-04-29T10:20:02.279Z,101111.03
2019-04-29T10:22:29.770Z,101101.80
2019-04-29T10:24:57.139Z,101099.28
2019-04-29T10:27:24.415Z,101093.12
2019-04-29T10:29:55.248Z,101092.58
2019-04-29T10:32:24.697Z,101096.08
2019-04-29T10:34:52.183Z,101094.47
2019-04-29T10:37:23.217Z,101093.86
2019-04-29T10:40:11.496Z,101083.82
2019-04-29T10:43:00.961Z,101079.33
2019-04-29T10:46:06.519Z,101075.30
2019-04-29T10:48:40.714Z,101073.05
2019-04-29T10:51:08.802Z,101071.10
2019-04-29T10:53:36.452Z,101072.48
2019-04-29T10:56:05.753Z,101067.20
2019-04-29T10:58:35.674Z,101067.69
2019-04-29T11:02:17.042Z,101064.80
2019-04-29T11:04:46.065Z,101060.63
2019-04-29T11:07:26.601Z,101054.08
2019-04-29T11:09:55.802Z,101044.50
2019-04-29T11:12:23.370Z,101040.33
2019-04-29T11:14:50.855Z,101038.60
2019-04-29T11:17:21.785Z,101031.56
2019-04-29T11:19:49.056Z,101031.56
2019-04-29T11:22:18.623Z,101022.09
2019-04-29T11:25:04.631Z,101021.02
2019-04-29T11:27:37.525Z,101011.75
2019-04-29T11:30:10.689Z,101005.33
2019-04-29T11:32:43.385Z,101000.00
2019-04-29T11:35:28.490Z,101001.84
2019-04-29T11:37:56.229Z,100995.17
2019-04-29T11:40:26.077Z,100989.12
2019-04-29T11:42:53.200Z,100974.55
2019-04-29T11:45:20.682Z,100971.38
2019-04-29T11:47:47.955Z,100976.20
2019-04-29T11:50:26.898Z,100969.44
2019-04-29T11:52:55.657Z,100973.66
2019-04-29T11:55:23.209Z,100970.83
2019-04-29T11:57:55.515Z,100963.09
2019-04-29T12:00:52.045Z,100965.18
2019-04-29T12:03:22.131Z,100956.69
2019-04-29T12:05:53.215Z,100966.80
2019-04-29T12:08:20.612Z,100966.04
2019-04-29T12:11:05.655Z,100956.20
2019-04-29T12:13:28.308Z,100951.84
2019-04-29T12:16:05.723Z,100953.47
2019-04-29T12:18:38.293Z,100950.80
2019-04-29T12:21:31.091Z,100948.97
2019-04-29T12:24:00.939Z,100942.92
2019-04-29T12:26:29.374Z,100936.52
2019-04-29T12:28:56.827Z,100932.48
2019-04-29T12:31:37.270Z,100936.97
2019-04-29T12:34:26.650Z,100934.60
2019-04-29T12:36:56.441Z,100930.41
2019-04-29T12:39:43.293Z,100927.47
2019-04-29T12:42:35.640Z,100924.59
2019-04-29T12:45:20.087Z,100923.22
2019-04-29T12:47:47.349Z,100915.11
2019-04-29T12:50:17.455Z,100908.96
2019-04-29T12:52:44.116Z,100906.36
2019-04-29T12:55:20.160Z,100898.79
2019-04-29T12:57:42.929Z,100903.56
2019-04-29T13:00:14.010Z,100895.92
2019-04-29T13:03:06.607Z,100898.39
2019-04-29T13:06:02.618Z,100898.16
2019-04-29T13:08:34.349Z,100888.39
2019-04-29T13:11:03.256Z,100890.71
2019-04-29T13:13:30.601Z,100882.88
2019-04-29T13:16:20.100Z,100885.38
2019-04-29T13:19:11.527Z,100873.91
2019-04-29T13:21:29.490Z,100878.41
2019-04-29T13:24:12.586Z,100876.66
2019-04-29T13:26:28.366Z,100872.52
2019-04-29T13:29:00.631Z,100867.79
2019-04-29T13:31:37.458Z,100868.20
2019-04-29T13:33:56.166Z,100869.80
2019-04-29T13:36:25.868Z,100877.72
2019-04-29T13:38:52.954Z,100889.20
2019-04-29T13:41:24.457Z,100881.04
2019-04-29T13:43:52.107Z,100879.92
2019-04-29T13:46:38.176Z,100860.77
2019-04-29T13:49:25.261Z,100875.22
2019-04-29T13:51:53.244Z,100865.54
2019-04-29T13:54:20.692Z,100866.30
2019-04-29T13:56:55.932Z,100860.66
2019-04-29T13:59:23.404Z,100856.73
2019-04-29T14:02:05.611Z,100864.96
2019-04-29T14:04:33.366Z,100862.27
2019-04-29T14:07:19.934Z,100862.63
2019-04-29T14:09:50.185Z,100853.52
2019-04-29T14:12:47.322Z,100847.91
2019-04-29T14:14:48.101Z,100842.98
2019-04-29T14:17:25.784Z,100844.39
2019-04-29T14:19:45.211Z,100850.09
2019-04-29T14:22:21.954Z,100851.20
2019-04-29T14:24:41.891Z,100847.69
2019-04-29T14:27:23.473Z,100847.20
2019-04-29T14:29:38.662Z,100845.55
2019-04-29T14:32:18.257Z,100840.87
2019-04-29T14:34:54.987Z,100838.66
2019-04-29T14:37:25.221Z,100840.72
2019-04-29T14:39:51.480Z,100848.69
2019-04-29T14:42:57.144Z,100838.66
2019-04-29T14:45:39.703Z,100838.08
2019-04-29T14:48:42.616Z,100839.63
2019-04-29T14:51:10.355Z,100842.92
2019-04-29T14:53:41.044Z,100840.95
2019-04-29T14:56:10.708Z,100838.62
2019-04-29T14:58:38.229Z,100831.67
2019-04-29T15:01:37.420Z,100836.77
2019-04-29T15:04:17.770Z,100843.78
2019-04-29T15:06:38.648Z,100856.73
2019-04-29T15:09:16.826Z,100852.27
2019-04-29T15:11:58.938Z,100852.89
2019-04-29T15:14:47.581Z,100857.66
2019-04-29T15:17:32.714Z,100849.45
2019-04-29T15:20:07.550Z,100860.56
2019-04-29T15:22:36.008Z,100861.85
2019-04-29T15:25:05.516Z,100861.11
2019-04-29T15:27:36.437Z,100861.72
2019-04-29T15:30:05.480Z,100871.21
2019-04-29T15:32:32.850Z,100861.92
2019-04-29T15:35:00.352Z,100869.15
2019-04-29T15:37:28.866Z,100868.03
2019-04-29T15:39:58.362Z,100865.92
2019-04-29T15:42:25.658Z,100875.00
2019-04-29T15:44:55.933Z,100866.53
2019-04-29T15:47:22.102Z,100873.05
2019-04-29T15:49:49.338Z,100873.23
2019-04-29T15:52:16.723Z,100877.61
2019-04-29T15:54:50.843Z,100876.95
2019-04-29T15:57:15.974Z,100878.33
2019-04-29T15:59:48.815Z,100882.17
2019-04-29T16:02:13.098Z,100885.66
2019-04-29T16:04:47.314Z,100886.65
2019-04-29T16:07:37.461Z,100891.48
2019-04-29T16:10:25.825Z,100893.70
2019-04-29T16:12:56.675Z,100888.37
2019-04-29T16:15:24.353Z,100889.40
2019-04-29T16:17:52.279Z,100887.91
2019-04-29T16:20:19.664Z,100887.31
2019-04-29T16:22:47.338Z,100889.75
2019-04-29T16:25:14.712Z,100894.23
2019-04-29T16:27:48.895Z,100883.87
2019-04-29T16:30:11.797Z,100887.11
2019-04-29T16:32:40.863Z,100882.84
2019-04-29T16:35:09.135Z,100887.12
2019-04-29T16:37:37.020Z,100887.55
2019-04-29T16:40:09.103Z,100888.81
2019-04-29T16:42:43.801Z,100886.14
2019-04-29T16:45:14.209Z,100892.11
2019-04-29T16:47:47.395Z,100896.52
2019-04-29T16:50:14.225Z,100893.47
2019-04-29T16:52:44.463Z,100887.33
2019-04-29T16:55:11.309Z,100892.34
2019-04-29T16:57:40.221Z,100888.95
2019-04-29T17:00:13.949Z,100886.34
2019-04-29T17:02:42.009Z,100882.34
2019-04-29T17:05:10.406Z,100875.98
2019-04-29T17:07:38.019Z,100874.48
2019-04-29T17:10:33.618Z,100870.55
2019-04-29T17:13:01.089Z,100867.52
2019-04-29T17:15:28.973Z,100861.53
2019-04-29T17:17:56.253Z,100860.41
2019-04-29T17:20:26.959Z,100851.88
2019-04-29T17:22:54.271Z,100850.60
2019-04-29T17:25:21.840Z,100853.59
2019-04-29T17:28:11.540Z,100850.78
2019-04-29T17:31:12.323Z,100844.46
2019-04-29T17:33:49.449Z,100851.28
2019-04-29T17:36:13.992Z,100860.64
2019-04-29T17:38:41.308Z,100864.59
2019-04-29T17:41:16.006Z,100860.48
2019-04-29T17:44:14.482Z,100866.34
2019-04-29T17:46:56.935Z,100861.31
2019-04-29T17:49:38.236Z,100866.59
2019-04-29T17:52:12.400Z,100870.16
2019-04-29T17:54:42.527Z,100875.81
2019-04-29T17:57:30.608Z,100872.20
2019-04-29T18:00:21.826Z,100877.37
2019-04-29T18:03:09.259Z,100868.54
2019-04-29T18:05:57.705Z,100866.95
2019-04-29T18:08:32.338Z,100844.31
2019-04-29T18:11:06.467Z,100851.38
2019-04-29T18:13:30.228Z,100859.55
2019-04-29T18:16:03.336Z,100855.73
2019-04-29T18:18:47.345Z,100861.45
2019-04-29T18:21:37.188Z,100864.45
2019-04-29T18:24:20.150Z,100857.59
2019-04-29T18:26:52.764Z,100853.97
2019-04-29T18:29:20.802Z,100848.90
2019-04-29T18:31:48.470Z,100857.25
2019-04-29T18:34:16.900Z,100848.49
2019-04-29T18:36:45.808Z,100860.45
2019-04-29T18:39:20.173Z,100853.06
2019-04-29T18:41:48.265Z,100854.91
2019-04-29T18:44:20.350Z,100857.61
2019-04-29T18:46:53.416Z,100861.05
2019-04-29T18:49:20.597Z,100862.77
2019-04-29T18:51:50.092Z,100857.34
2019-04-29T18:54:17.935Z,100862.92
2019-04-29T18:56:45.806Z,100869.08
2019-04-29T18:59:13.593Z,100867.28
2019-04-29T19:01:41.370Z,100860.37
2019-04-29T19:04:20.652Z,100873.74
2019-04-29T19:06:59.376Z,100881.23
2019-04-29T19:09:27.177Z,100878.30
2019-04-29T19:11:55.309Z,100881.23
2019-04-29T19:14:26.865Z,100890.36
2019-04-29T19:17:00.106Z,100889.53
2019-04-29T19:19:25.230Z,100885.23
2019-04-29T19:21:53.094Z,100882.69
2019-04-29T19:24:20.767Z,100878.14
2019-04-29T19:26:53.939Z,100884.30
2019-04-29T19:29:24.706Z,100889.88
2019-04-29T19:31:52.670Z,100894.81
2019-04-29T19:34:20.574Z,100905.14
2019-04-29T19:36:50.799Z,100907.14
2019-04-29T19:39:21.839Z,100902.20
2019-04-29T19:41:51.732Z,100905.34
2019-04-29T19:44:19.700Z,100911.89
2019-04-29T19:46:50.127Z,100913.89
2019-04-29T19:49:18.574Z,100909.64
2019-04-29T19:51:47.467Z,100911.09
2019-04-29T19:54:16.918Z,100905.42
2019-04-29T19:56:44.665Z,100908.60
2019-04-29T19:59:14.848Z,100909.67
2019-04-29T20:01:42.265Z,100911.87
2019-04-29T20:04:31.278Z,100914.17
2019-04-29T20:07:05.984Z,100917.12
2019-04-29T20:09:32.330Z,100927.17
2019-04-29T20:12:12.780Z,100929.67
2019-04-29T20:14:37.266Z,100928.16
2019-04-29T20:17:27.472Z,100922.98
2019-04-29T20:20:06.557Z,100919.77
2019-04-29T20:22:37.084Z,100931.78
2019-04-29T20:25:06.300Z,100926.10
2019-04-29T20:27:35.605Z,100933.88
2019-04-29T20:30:16.492Z,100932.59
2019-04-29T20:32:38.865Z,100938.72
2019-04-29T20:35:08.898Z,100934.91
2019-04-29T20:37:36.495Z,100932.65
2019-04-29T20:40:05.760Z,100929.67
2019-04-29T20:42:33.278Z,100932.02
2019-04-29T20:45:00.753Z,100920.09
2019-04-29T20:47:37.552Z,100928.25
2019-04-29T20:49:57.496Z,100925.80
2019-04-29T20:52:36.249Z,100930.59
2019-04-29T20:55:07.365Z,100924.14
2019-04-29T20:57:35.728Z,100931.82
2019-04-29T21:00:06.185Z,100921.31
2019-04-29T21:02:35.362Z,100924.97
2019-04-29T21:05:03.173Z,100925.15
2019-04-29T21:07:30.703Z,100920.95
2019-04-29T21:09:59.966Z,100922.63
2019-04-29T21:12:42.192Z,100925.89
2019-04-29T21:15:16.332Z,100921.40
2019-04-29T21:17:45.320Z,100926.95
2019-04-29T21:20:12.964Z,100922.77
2019-04-29T21:22:40.398Z,100919.83
2019-04-29T21:25:07.982Z,100925.59
2019-04-29T21:27:35.418Z,100926.88
2019-04-29T21:30:03.855Z,100923.98
2019-04-29T21:32:35.330Z,100923.39
2019-04-29T21:35:21.279Z,100926.52
2019-04-29T21:38:23.449Z,100932.98
2019-04-29T21:40:56.235Z,100930.86
2019-04-29T21:43:26.169Z,100924.40
2019-04-29T21:45:55.512Z,100933.22
2019-04-29T21:48:25.689Z,100928.33
2019-04-29T21:50:51.996Z,100925.15
2019-04-29T21:53:19.397Z,100927.73
2019-04-29T21:55:46.663Z,100929.25
2019-04-29T21:58:13.826Z,100925.77
2019-04-29T22:00:41.434Z,100928.42
2019-04-29T22:03:08.681Z,100924.31
2019-04-29T22:05:36.608Z,100925.74
2019-04-29T22:08:04.171Z,100927.88
2019-04-29T22:10:31.421Z,100925.83
2019-04-29T22:13:02.279Z,100925.51
2019-04-29T22:15:32.855Z,100932.68
2019-04-29T22:18:01.338Z,100930.38
2019-04-29T22:20:26.960Z,100935.27
2019-04-29T22:22:55.871Z,100932.77
2019-04-29T22:25:23.317Z,100933.95
2019-04-29T22:27:50.592Z,100939.67
2019-04-29T22:30:18.878Z,100942.64
2019-04-29T22:32:51.884Z,100935.86
2019-04-29T22:35:16.722Z,100942.47
2019-04-29T22:37:45.471Z,100937.08
2019-04-29T22:40:17.004Z,100940.12
2019-04-29T22:43:08.387Z,100938.16
2019-04-29T22:45:33.983Z,100939.73
2019-04-29T22:48:14.230Z,100938.16
2019-04-29T22:50:29.224Z,100939.07
2019-04-29T22:52:57.151Z,100939.28
2019-04-29T22:55:25.304Z,100937.38
2019-04-29T22:57:52.751Z,100938.06
2019-04-29T23:00:26.233Z,100942.25
2019-04-29T23:02:52.302Z,100937.08
2019-04-29T23:05:23.527Z,100937.08
2019-04-29T23:07:52.932Z,100938.77
2019-04-29T23:10:24.016Z,100936.88
2019-04-29T23:12:49.312Z,100938.14
2019-04-29T23:15:22.685Z,100938.14
2019-04-29T23:17:47.429Z,100940.34
2019-04-29T23:20:55.279Z,100932.83
2019-04-29T23:23:33.738Z,100932.83
2019-04-29T23:25:59.859Z,100932.97
2019-04-29T23:28:28.386Z,100930.02
2019-04-29T23:30:56.278Z,100927.65
2019-04-29T23:33:25.901Z,100926.74
2019-04-29T23:35:52.709Z,100934.95
2019-04-29T23:38:20.087Z,100929.72
2019-04-29T23:40:49.686Z,100931.18
2019-04-29T23:43:19.912Z,100929.80
2019-04-29T23:45:45.752Z,100929.73
2019-04-29T23:48:13.146Z,100928.65
2019-04-29T23:50:40.557Z,100927.28
2019-04-29T23:53:07.905Z,100923.70
2019-04-29T23:55:35.660Z,100928.88
2019-04-29T23:58:15.331Z,100923.03
